Time;durP1;ratioP1;P1;durP2;ratioP2;P2;SDS_P1;SDS_P2;PMS_P1;PMS_P2;Temp;Humidity;BMP_temperature;BMP_pressure;BME280_temperature;BME280_humidity;BME280_pressure;Samples;Min_cycle;Max_cycle;Signal;HPM_P1;HPM_P2
2023/07/03 03:01:09;;;;;;;38.10;34.60;;;15.90;99.90;;;;;;5480004;23;20237;-79
2023/07/03 03:03:34;;;;;;;38.27;34.97;;;16.00;99.90;;;;;;4871026;29;20816;-79
2023/07/03 03:06:01;;;;;;;43.43;39.80;;;16.00;99.90;;;;;;4867767;29;20219;-78
2023/07/03 03:08:27;;;;;;;39.50;36.10;;;16.00;99.90;;;;;;4881782;29;20224;-80
2023/07/03 03:10:54;;;;;;;42.93;39.07;;;16.10;99.90;;;;;;4882005;29;20703;-79
2023/07/03 03:13:20;;;;;;;42.57;38.87;;;16.10;99.90;;;;;;4863660;29;20193;-80
2023/07/03 03:15:45;;;;;;;48.23;43.93;;;16.10;99.90;;;;;;4876449;24;20232;-75
2023/07/03 03:18:11;;;;;;;45.27;41.47;;;16.10;99.90;;;;;;4859890;29;20661;-75
2023/07/03 03:20:37;;;;;;;47.13;43.43;;;16.10;99.90;;;;;;4859975;29;20193;-75
2023/07/03 03:23:03;;;;;;;43.30;39.70;;;16.10;99.90;;;;;;4861328;29;20204;-75
2023/07/03 03:25:29;;;;;;;44.40;40.53;;;16.10;99.90;;;;;;4848195;29;20308;-75
2023/07/03 03:27:55;;;;;;;47.43;42.73;;;16.10;99.90;;;;;;4842431;29;20257;-75
2023/07/03 03:30:21;;;;;;;48.43;44.13;;;16.10;99.90;;;;;;4842628;29;20190;-75
2023/07/03 03:32:47;;;;;;;44.90;40.47;;;16.10;99.90;;;;;;4841305;29;20670;-74
2023/07/03 03:35:13;;;;;;;45.97;41.87;;;16.00;99.90;;;;;;4844669;29;20213;-75
2023/07/03 03:37:39;;;;;;;47.60;43.67;;;16.10;99.90;;;;;;4841975;29;20300;-74
2023/07/03 03:40:07;;;;;;;49.47;45.53;;;16.10;99.90;;;;;;4851303;29;20196;-74
2023/07/03 03:42:34;;;;;;;40.80;36.60;;;16.10;99.90;;;;;;4852623;29;20190;-75
2023/07/03 03:45:00;;;;;;;40.20;36.30;;;16.20;99.90;;;;;;4848193;29;20266;-74
2023/07/03 03:47:25;;;;;;;38.77;35.13;;;16.20;99.90;;;;;;4841976;29;20678;-76
2023/07/03 03:49:53;;;;;;;39.70;36.40;;;16.20;99.90;;;;;;4846852;29;20674;-76
2023/07/03 03:52:19;;;;;;;36.57;33.27;;;16.30;99.90;;;;;;4842357;29;20205;-76
2023/07/03 03:54:46;;;;;;;35.20;31.73;;;16.30;99.90;;;;;;4842348;29;20225;-76
2023/07/03 03:57:15;;;;;;;30.70;26.07;;;16.30;99.90;;;;;;4842055;29;20194;-76
2023/07/03 03:59:41;;;;;;;25.93;21.70;;;16.30;99.90;;;;;;4842756;29;20189;-76
2023/07/03 04:02:08;;;;;;;20.37;16.33;;;16.40;99.90;;;;;;4843972;29;20189;-75
2023/07/03 04:04:34;;;;;;;23.90;14.60;;;16.40;99.90;;;;;;4842400;29;20694;-75
2023/07/03 04:07:01;;;;;;;21.60;14.87;;;16.50;99.90;;;;;;4842033;29;20205;-75
2023/07/03 04:09:27;;;;;;;19.83;13.70;;;16.60;99.90;;;;;;4842140;29;20277;-75
2023/07/03 04:11:53;;;;;;;23.13;14.50;;;16.70;99.90;;;;;;4842234;29;20227;-76
2023/07/03 04:14:18;;;;;;;22.80;15.97;;;16.70;99.90;;;;;;4841816;29;20475;-75
2023/07/03 04:16:46;;;;;;;23.87;17.40;;;16.80;99.90;;;;;;4841975;29;20202;-76
2023/07/03 04:19:12;;;;;;;26.67;24.20;;;16.90;99.90;;;;;;4838987;29;20212;-75
2023/07/03 04:21:39;;;;;;;31.40;27.30;;;17.00;99.90;;;;;;4841693;29;20668;-75
2023/07/03 04:24:05;;;;;;;25.10;19.83;;;17.20;99.90;;;;;;4842006;29;20205;-75
2023/07/03 04:26:31;;;;;;;20.03;15.13;;;17.30;99.90;;;;;;4841940;29;20253;-75
2023/07/03 04:28:58;;;;;;;21.03;14.77;;;17.50;99.90;;;;;;4847348;29;20217;-75
2023/07/03 04:31:24;;;;;;;22.53;13.10;;;17.60;99.90;;;;;;4849952;29;20280;-74
2023/07/03 04:33:50;;;;;;;20.90;13.23;;;17.70;99.90;;;;;;4836086;29;20201;-75
2023/07/03 04:36:21;;;;;;;28.40;15.23;;;17.90;99.90;;;;;;4838957;29;20559;-75
2023/07/03 04:38:47;;;;;;;30.27;24.77;;;18.00;99.90;;;;;;4840136;29;20214;-74
2023/07/03 04:41:14;;;;;;;29.37;26.37;;;18.00;99.90;;;;;;4843144;29;20190;-75
2023/07/03 04:43:44;;;;;;;31.87;28.90;;;18.10;99.90;;;;;;4841048;29;20708;-75
2023/07/03 04:46:12;;;;;;;37.70;34.57;;;18.20;99.90;;;;;;4841189;29;20309;-75
2023/07/03 04:48:39;;;;;;;39.43;35.83;;;18.20;99.90;;;;;;4840597;29;20311;-75
2023/07/03 04:51:05;;;;;;;31.43;28.47;;;18.20;99.90;;;;;;4840615;29;20209;-74
2023/07/03 04:53:39;;;;;;;26.13;23.23;;;18.30;99.90;;;;;;4840044;29;20542;-75
2023/07/03 04:56:05;;;;;;;24.50;21.20;;;18.30;99.90;;;;;;4840556;29;20219;-75
2023/07/03 04:58:31;;;;;;;23.87;19.83;;;18.30;99.90;;;;;;4840660;29;20194;-79
2023/07/03 05:00:57;;;;;;;21.87;18.83;;;18.30;99.90;;;;;;4840890;29;20205;-69
2023/07/03 05:03:23;;;;;;;24.77;18.10;;;18.30;99.90;;;;;;4840517;29;20209;-69
2023/07/03 05:05:49;;;;;;;17.80;13.00;;;18.30;99.90;;;;;;4846709;29;20224;-69
2023/07/03 05:08:14;;;;;;;16.07;12.87;;;18.30;99.90;;;;;;4842047;29;20209;-69
2023/07/03 05:10:40;;;;;;;19.17;12.37;;;18.40;99.90;;;;;;4842592;29;20292;-69
2023/07/03 05:13:06;;;;;;;16.95;11.07;;;18.30;99.90;;;;;;4840659;29;20221;-68
2023/07/03 05:15:32;;;;;;;22.50;12.57;;;18.40;99.90;;;;;;4840201;29;20308;-68
2023/07/03 05:17:58;;;;;;;19.73;13.20;;;18.40;99.90;;;;;;4840077;29;20689;-68
2023/07/03 05:20:25;;;;;;;21.90;14.53;;;18.50;99.90;;;;;;4840499;29;20213;-69
2023/07/03 05:22:51;;;;;;;18.47;13.70;;;18.50;99.90;;;;;;4840640;29;20194;-68
2023/07/03 05:25:18;;;;;;;19.20;13.63;;;18.50;99.90;;;;;;4840093;29;20222;-68
2023/07/03 05:27:44;;;;;;;23.05;15.07;;;18.60;99.90;;;;;;4842172;29;20205;-68
2023/07/03 05:30:11;;;;;;;18.70;16.45;;;18.60;99.90;;;;;;4842597;29;20190;-69
2023/07/03 05:32:37;;;;;;;22.67;18.02;;;18.80;99.90;;;;;;4840224;29;20196;-67
2023/07/03 05:35:04;;;;;;;22.30;19.27;;;18.80;99.90;;;;;;4840142;29;20246;-68
2023/07/03 05:37:30;;;;;;;22.13;19.03;;;18.80;99.90;;;;;;4844036;29;20658;-68
2023/07/03 05:39:56;;;;;;;20.63;16.85;;;18.90;99.90;;;;;;4843100;29;20205;-67
2023/07/03 05:42:23;;;;;;;18.40;11.75;;;19.10;99.90;;;;;;4840581;29;20193;-68
2023/07/03 05:44:49;;;;;;;22.23;11.15;;;19.20;99.90;;;;;;4840360;29;20217;-69
2023/07/03 05:47:16;;;;;;;17.70;10.75;;;19.30;99.90;;;;;;4840011;29;20200;-68
2023/07/03 05:49:42;;;;;;;19.15;10.63;;;19.50;99.90;;;;;;4840131;29;20251;-68
2023/07/03 05:52:10;;;;;;;17.15;12.07;;;19.60;99.90;;;;;;4840638;29;20685;-68
2023/07/03 05:54:36;;;;;;;17.50;10.75;;;19.70;99.90;;;;;;4839769;29;20798;-68
2023/07/03 05:57:07;;;;;;;20.33;13.30;;;19.80;99.90;;;;;;4840173;29;20201;-68
2023/07/03 05:59:34;;;;;;;21.15;18.15;;;20.00;99.90;;;;;;4840315;29;20284;-68
2023/07/03 06:02:01;;;;;;;26.05;18.80;;;20.20;99.90;;;;;;4839327;29;20204;-67
2023/07/03 06:04:27;;;;;;;19.33;17.23;;;20.30;99.90;;;;;;4841336;29;20242;-67
2023/07/03 06:06:55;;;;;;;20.80;18.15;;;20.50;99.90;;;;;;4842447;29;20272;-68
2023/07/03 06:09:22;;;;;;;20.63;18.50;;;20.70;99.90;;;;;;4839558;29;20705;-67
2023/07/03 06:11:48;;;;;;;21.77;19.77;;;20.90;99.90;;;;;;4839204;29;20199;-68
2023/07/03 06:14:17;;;;;;;31.38;28.88;;;21.10;99.90;;;;;;4840380;29;20592;-68
2023/07/03 06:16:43;;;;;;;27.50;24.75;;;21.20;99.90;;;;;;4840274;29;20218;-68
2023/07/03 06:19:15;;;;;;;24.90;22.60;;;21.40;99.90;;;;;;4839843;29;20608;-68
2023/07/03 06:21:41;;;;;;;22.73;20.27;;;21.50;99.90;;;;;;4840122;29;20591;-68
2023/07/03 06:24:11;;;;;;;16.98;14.05;;;21.70;99.90;;;;;;4840886;29;20197;-67
2023/07/03 06:26:39;;;;;;;20.00;16.73;;;21.90;99.90;;;;;;4828961;29;20220;-68
2023/07/03 06:29:10;;;;;;;15.30;12.90;;;22.00;99.90;;;;;;4830845;29;20219;-68
2023/07/03 06:31:36;;;;;;;19.42;13.90;;;22.20;99.90;;;;;;4843266;29;20220;-69
2023/07/03 06:34:03;;;;;;;15.13;11.68;;;22.60;99.90;;;;;;4842734;29;20190;-68
2023/07/03 06:36:29;;;;;;;18.42;15.77;;;23.30;99.90;;;;;;4840009;29;20232;-67
2023/07/03 06:38:59;;;;;;;22.45;19.60;;;24.00;99.90;;;;;;4838399;29;20193;-68
2023/07/03 06:41:28;;;;;;;25.10;22.48;;;24.40;99.90;;;;;;4840240;29;20197;-69
2023/07/03 06:43:55;;;;;;;24.20;21.67;;;24.70;99.90;;;;;;4844169;29;20272;-68
2023/07/03 06:46:21;;;;;;;25.48;23.27;;;24.50;99.50;;;;;;4839380;29;20292;-68
2023/07/03 06:48:47;;;;;;;21.13;19.10;;;24.00;99.90;;;;;;4844725;29;20304;-69
2023/07/03 06:51:13;;;;;;;21.75;19.65;;;23.60;99.90;;;;;;4841502;29;20280;-69
2023/07/03 06:53:40;;;;;;;25.88;23.27;;;23.40;99.90;;;;;;4839806;29;20189;-68
2023/07/03 06:56:07;;;;;;;22.73;20.75;;;23.20;99.90;;;;;;4839277;29;20217;-68
2023/07/03 06:58:34;;;;;;;29.90;27.02;;;23.10;99.90;;;;;;4838108;29;20249;-68
2023/07/03 07:01:12;;;;;;;30.63;27.92;;;22.90;99.90;;;;;;4839344;29;20280;-68
2023/07/03 07:03:39;;;;;;;30.88;28.55;;;23.00;99.90;;;;;;4839399;29;20284;-68
2023/07/03 07:06:11;;;;;;;26.98;24.50;;;23.40;99.90;;;;;;4839170;29;20281;-69
2023/07/03 07:08:37;;;;;;;31.45;28.98;;;23.40;99.90;;;;;;4839339;29;20313;-68
2023/07/03 07:11:03;;;;;;;23.35;20.92;;;23.50;99.90;;;;;;4839218;29;20625;-67
2023/07/03 07:13:29;;;;;;;24.63;22.42;;;23.30;99.90;;;;;;4841246;29;20285;-67
2023/07/03 07:15:55;;;;;;;27.25;24.23;;;23.30;99.90;;;;;;4842474;29;20324;-67
2023/07/03 07:18:21;;;;;;;29.58;26.98;;;23.60;99.90;;;;;;4842152;29;20292;-67
2023/07/03 07:20:46;;;;;;;30.70;28.23;;;23.60;99.90;;;;;;4844256;29;20642;-68
2023/07/03 07:23:12;;;;;;;31.92;29.50;;;23.70;99.90;;;;;;4841581;29;20257;-68
2023/07/03 07:25:38;;;;;;;36.38;33.45;;;23.90;99.90;;;;;;4842326;29;20309;-67
2023/07/03 07:28:04;;;;;;;26.85;24.33;;;24.10;99.30;;;;;;4841900;29;20655;-68
2023/07/03 07:30:29;;;;;;;26.25;24.00;;;24.20;99.00;;;;;;4842677;29;20186;-68
2023/07/03 07:32:55;;;;;;;24.38;22.27;;;24.20;98.90;;;;;;4842145;29;20232;-69
2023/07/03 07:35:22;;;;;;;23.70;21.52;;;24.20;99.10;;;;;;4842412;29;20638;-69
2023/07/03 07:37:48;;;;;;;26.88;24.42;;;24.10;99.20;;;;;;4840763;29;20281;-69
2023/07/03 07:40:15;;;;;;;29.23;26.70;;;23.80;99.10;;;;;;4842579;29;20277;-68
2023/07/03 07:42:41;;;;;;;40.53;37.33;;;23.50;99.50;;;;;;4842604;29;20266;-68
2023/07/03 07:45:07;;;;;;;37.30;34.42;;;23.60;99.80;;;;;;4842621;29;20629;-68
2023/07/03 07:47:33;;;;;;;39.22;36.22;;;23.60;99.30;;;;;;4841620;29;20542;-68
2023/07/03 07:49:58;;;;;;;37.35;34.42;;;23.70;99.10;;;;;;4842212;29;20205;-68
2023/07/03 07:52:26;;;;;;;37.33;34.45;;;23.80;99.20;;;;;;4842078;29;20198;-69
2023/07/03 07:54:56;;;;;;;28.63;26.08;;;23.70;98.90;;;;;;4840764;29;20772;-69
2023/07/03 07:57:21;;;;;;;34.63;32.10;;;23.40;98.00;;;;;;4841587;29;20241;-69
2023/07/03 07:59:47;;;;;;;38.50;35.55;;;23.20;99.00;;;;;;4842167;29;20193;-69
2023/07/03 08:02:13;;;;;;;36.03;33.10;;;23.10;99.40;;;;;;4841760;29;20198;-69
2023/07/03 08:04:39;;;;;;;28.05;25.58;;;22.90;99.50;;;;;;4842480;29;20262;-69
2023/07/03 08:07:05;;;;;;;25.90;23.60;;;22.70;99.70;;;;;;4842207;29;20200;-69
2023/07/03 08:09:30;;;;;;;19.08;17.08;;;22.30;99.60;;;;;;4845386;29;20587;-69
2023/07/03 08:11:56;;;;;;;20.23;17.58;;;22.10;99.90;;;;;;4845871;29;20205;-69
2023/07/03 08:14:22;;;;;;;20.67;18.50;;;22.00;99.90;;;;;;4841612;29;20221;-70
2023/07/03 08:16:48;;;;;;;21.98;19.08;;;22.00;99.90;;;;;;4841684;29;20197;-69
2023/07/03 08:19:13;;;;;;;18.73;10.45;;;21.70;99.90;;;;;;4841628;29;20193;-69
2023/07/03 08:21:39;;;;;;;16.20;10.15;;;21.40;99.90;;;;;;4841897;29;20197;-69
2023/07/03 08:24:05;;;;;;;17.35;10.77;;;21.20;99.90;;;;;;4839445;29;20220;-69
2023/07/03 08:26:31;;;;;;;15.30;10.27;;;21.10;99.90;;;;;;4841281;29;20206;-69
2023/07/03 08:28:57;;;;;;;16.38;10.32;;;21.00;99.90;;;;;;4841189;29;20213;-69
2023/07/03 08:31:23;;;;;;;16.98;10.70;;;21.00;99.90;;;;;;4841339;29;20212;-69
2023/07/03 08:33:49;;;;;;;17.83;12.10;;;21.00;99.90;;;;;;4841522;29;20192;-69
2023/07/03 08:36:15;;;;;;;24.08;12.18;;;21.10;99.90;;;;;;4841747;29;20694;-69
2023/07/03 08:38:41;;;;;;;17.15;13.15;;;21.20;99.90;;;;;;4841076;29;20803;-68
2023/07/03 08:41:09;;;;;;;19.25;13.63;;;21.10;99.90;;;;;;4840354;29;20561;-69
2023/07/03 08:43:42;;;;;;;15.02;11.68;;;21.30;99.90;;;;;;4841427;29;20201;-69
2023/07/03 08:46:19;;;;;;;17.42;10.77;;;21.40;99.90;;;;;;4841043;29;20714;-69
2023/07/03 08:48:47;;;;;;;22.90;12.63;;;21.40;99.90;;;;;;4840915;29;20596;-69
2023/07/03 08:51:18;;;;;;;23.42;12.00;;;21.40;99.90;;;;;;4841451;29;20243;-68
2023/07/03 08:53:47;;;;;;;15.77;10.43;;;21.90;99.90;;;;;;4839594;29;20580;-69
2023/07/03 08:56:17;;;;;;;16.20;11.13;;;22.40;99.90;;;;;;4838695;29;20236;-68
2023/07/03 08:58:44;;;;;;;19.23;10.93;;;22.60;99.90;;;;;;4840668;29;20197;-68
2023/07/03 09:01:26;;;;;;;17.13;14.15;;;22.80;99.90;;;;;;4840806;29;20324;-68
2023/07/03 09:04:16;;;;;;;18.08;12.07;;;22.60;99.90;;;;;;4840588;29;20787;-68
2023/07/03 09:07:07;;;;;;;22.38;12.90;;;22.00;99.90;;;;;;4841015;29;20209;-68
2023/07/03 09:09:43;;;;;;;19.92;12.23;;;21.60;99.90;;;;;;4830935;29;20710;-68
2023/07/03 09:12:28;;;;;;;18.90;11.98;;;21.70;99.90;;;;;;4840835;29;20201;-69
2023/07/03 09:15:29;;;;;;;19.42;10.88;;;22.50;99.90;;;;;;4860999;23;20239;-64
2023/07/03 09:17:59;;;;;;;16.83;14.90;;;22.90;99.90;;;;;;4829243;29;20213;-64
2023/07/03 09:20:27;;;;;;;23.45;19.02;;;22.80;99.90;;;;;;4859022;29;20284;-65
2023/07/03 09:22:56;;;;;;;22.52;20.23;;;22.80;99.90;;;;;;4858740;29;20202;-64
2023/07/03 09:25:35;;;;;;;27.98;22.45;;;23.30;99.90;;;;;;4858852;29;20220;-64
2023/07/03 09:28:04;;;;;;;27.65;23.75;;;24.00;99.90;;;;;;4858581;29;20654;-67
2023/07/03 09:30:29;;;;;;;39.63;35.88;;;24.00;99.50;;;;;;4858909;29;20212;-64
2023/07/03 09:32:55;;;;;;;36.00;33.05;;;24.20;98.70;;;;;;4859812;29;20235;-64
2023/07/03 09:35:22;;;;;;;39.55;36.58;;;24.20;98.50;;;;;;4858846;29;20213;-63
2023/07/03 09:37:57;;;;;;;41.33;37.33;;;23.80;98.90;;;;;;4858973;29;20363;-64
2023/07/03 09:40:31;;;;;;;36.72;33.42;;;23.40;99.70;;;;;;4859210;29;20577;-65
2023/07/03 09:42:57;;;;;;;30.63;28.00;;;23.00;99.90;;;;;;4842471;29;20672;-64
2023/07/03 09:45:31;;;;;;;24.92;22.45;;;22.70;99.90;;;;;;4858416;29;20607;-65
2023/07/03 09:47:59;;;;;;;23.90;21.45;;;22.50;99.90;;;;;;4858453;29;20303;-65
2023/07/03 09:50:35;;;;;;;22.50;20.10;;;22.70;99.90;;;;;;4842042;29;20279;-65
2023/07/03 09:53:03;;;;;;;46.42;42.60;;;23.30;99.30;;;;;;4857861;29;20196;-65
2023/07/03 09:55:29;;;;;;;21.55;19.23;;;24.30;97.40;;;;;;4858284;29;20201;-64
2023/07/03 09:57:56;;;;;;;14.90;8.70;;;25.40;96.30;;;;;;4857100;29;20224;-65
2023/07/03 10:00:24;;;;;;;16.17;7.90;;;26.00;94.30;;;;;;4827635;29;20285;-65
2023/07/03 10:02:55;;;;;;;17.08;11.85;;;26.40;93.90;;;;;;4848963;29;20234;-65
2023/07/03 10:05:30;;;;;;;15.77;11.60;;;27.10;92.20;;;;;;4858205;29;20217;-66
2023/07/03 10:08:00;;;;;;;15.23;12.25;;;27.10;91.10;;;;;;4858076;29;20224;-64
2023/07/03 10:10:28;;;;;;;19.95;12.48;;;27.30;90.90;;;;;;4859058;29;20193;-64
2023/07/03 10:13:23;;;;;;;15.35;11.88;;;26.80;91.70;;;;;;4841966;29;20189;-64
2023/07/03 10:15:51;;;;;;;25.35;23.23;;;27.40;91.10;;;;;;4857224;29;20228;-65
2023/07/03 10:18:38;;;;;;;12.85;8.77;;;28.60;88.40;;;;;;4856550;29;20193;-65
2023/07/03 10:21:08;;;;;;;12.07;9.57;;;29.60;82.20;;;;;;4857063;29;20760;-65
2023/07/03 10:23:38;;;;;;;12.68;11.32;;;30.00;79.20;;;;;;4858451;29;20311;-66
2023/07/03 10:26:10;;;;;;;16.70;9.73;;;29.60;77.80;;;;;;4858284;29;20212;-65
2023/07/03 10:28:45;;;;;;;17.20;8.70;;;29.90;76.90;;;;;;4858124;29;20221;-65
2023/07/03 10:31:23;;;;;;;15.20;8.18;;;29.50;73.80;;;;;;4858400;29;20204;-65
2023/07/03 10:33:56;;;;;;;12.75;9.50;;;29.80;75.00;;;;;;4858441;29;20201;-66
2023/07/03 10:36:26;;;;;;;14.15;12.50;;;30.30;72.80;;;;;;4858332;29;20626;-66
2023/07/03 10:39:04;;;;;;;15.20;12.05;;;30.20;70.20;;;;;;4852367;29;20331;-66
2023/07/03 10:41:32;;;;;;;16.00;12.57;;;30.60;70.40;;;;;;4841113;29;20196;-66
2023/07/03 10:44:13;;;;;;;18.15;16.27;;;30.50;68.60;;;;;;4858415;29;20193;-65
2023/07/03 10:47:00;;;;;;;14.18;8.77;;;28.60;69.10;;;;;;4857893;29;20303;-65
2023/07/03 10:49:32;;;;;;;12.43;8.48;;;27.30;73.10;;;;;;4861284;29;20256;-65
2023/07/03 10:52:10;;;;;;;16.00;9.30;;;26.80;74.90;;;;;;4861788;29;20225;-65
2023/07/03 10:55:32;;;;;;;16.67;10.13;;;26.50;75.40;;;;;;4861305;29;20185;-64
2023/07/03 10:58:04;;;;;;;12.15;8.88;;;26.70;76.70;;;;;;4839721;29;20221;-64
2023/07/03 11:00:39;;;;;;;11.10;9.02;;;27.70;74.00;;;;;;4861687;29;20284;-65
2023/07/03 11:03:34;;;;;;;13.48;10.30;;;27.80;71.90;;;;;;4861212;29;20200;-65
2023/07/03 11:06:05;;;;;;;12.52;9.48;;;27.60;73.40;;;;;;4861393;29;20264;-64
2023/07/03 11:08:53;;;;;;;11.45;9.25;;;27.60;73.20;;;;;;4860720;29;20566;-64
2023/07/03 11:11:28;;;;;;;12.10;9.20;;;27.00;73.70;;;;;;4861404;29;20547;-65
2023/07/03 11:14:16;;;;;;;15.13;11.48;;;27.10;75.30;;;;;;4861450;29;20196;-65
2023/07/03 11:16:52;;;;;;;10.55;7.95;;;28.40;71.60;;;;;;4860920;29;20733;-64
2023/07/03 11:19:29;;;;;;;12.07;8.63;;;29.60;69.40;;;;;;4860987;29;20255;-64
2023/07/03 11:22:02;;;;;;;12.10;9.18;;;29.30;65.50;;;;;;4861232;29;20197;-66
2023/07/03 11:24:52;;;;;;;7.70;6.35;;;28.20;66.40;;;;;;4860875;29;20207;-66
2023/07/03 11:27:31;;;;;;;11.23;9.23;;;26.90;67.60;;;;;;4860882;29;20200;-66
2023/07/03 11:29:58;;;;;;;12.65;8.50;;;26.30;70.20;;;;;;4860790;29;20220;-66
2023/07/03 11:32:25;;;;;;;9.63;8.60;;;26.70;71.70;;;;;;4844409;29;20216;-65
2023/07/03 11:34:52;;;;;;;10.60;7.93;;;27.00;70.90;;;;;;4860834;29;20264;-65
2023/07/03 11:37:38;;;;;;;11.48;9.30;;;26.90;72.40;;;;;;4860808;29;20198;-66
2023/07/03 11:40:54;;;;;;;14.23;12.02;;;26.00;74.50;;;;;;4844201;29;20189;-66
2023/07/03 11:43:33;;;;;;;12.43;10.05;;;26.60;74.80;;;;;;4821638;29;20202;-65
2023/07/03 11:45:59;;;;;;;12.98;10.10;;;27.00;73.30;;;;;;4859884;29;20225;-65
2023/07/03 11:48:35;;;;;;;11.13;10.02;;;26.60;74.70;;;;;;4844133;29;20224;-65
2023/07/03 11:51:04;;;;;;;15.80;14.30;;;26.20;75.90;;;;;;4860854;29;20203;-65
2023/07/03 11:53:34;;;;;;;13.60;12.20;;;25.90;77.00;;;;;;4860782;29;20193;-65
2023/07/03 11:56:02;;;;;;;15.50;13.23;;;25.80;76.60;;;;;;4860628;29;20265;-65
2023/07/03 11:58:30;;;;;;;13.23;11.85;;;26.40;76.90;;;;;;4869022;29;20274;-65
2023/07/03 12:01:21;;;;;;;9.20;7.78;;;27.50;73.60;;;;;;4860103;29;20201;-65
2023/07/03 12:03:51;;;;;;;12.50;7.47;;;27.60;70.50;;;;;;4860602;29;20288;-65
2023/07/03 12:06:39;;;;;;;11.68;10.63;;;26.80;71.90;;;;;;4860281;29;20219;-65
2023/07/03 12:09:23;;;;;;;15.35;13.90;;;26.20;75.10;;;;;;4859593;29;20221;-65
2023/07/03 12:12:01;;;;;;;16.33;14.90;;;25.40;76.40;;;;;;4860424;29;20196;-65
2023/07/03 12:17:37;;;;;;;14.10;12.63;;;26.70;75.90;;;;;;4859646;29;20204;-65
2023/07/03 12:20:07;;;;;;;11.80;7.82;;;27.90;71.10;;;;;;4851893;29;20268;-65
2023/07/03 12:22:38;;;;;;;11.27;6.70;;;28.80;70.60;;;;;;4859908;29;20201;-65
2023/07/03 12:25:16;;;;;;;10.45;6.93;;;29.90;67.80;;;;;;4859990;29;20268;-66
2023/07/03 12:27:42;;;;;;;11.48;6.88;;;29.90;67.50;;;;;;4859895;29;20185;-65
2023/07/03 12:30:23;;;;;;;11.27;9.95;;;28.30;70.40;;;;;;4859836;29;20212;-65
2023/07/03 12:32:50;;;;;;;13.30;10.70;;;27.10;73.60;;;;;;4860135;29;20279;-65
2023/07/03 12:35:19;;;;;;;21.48;19.65;;;26.30;75.30;;;;;;4859681;29;20209;-65
2023/07/03 12:37:50;;;;;;;20.60;18.83;;;25.20;79.40;;;;;;4859303;29;20204;-65
2023/07/03 12:40:18;;;;;;;18.48;16.73;;;26.00;80.00;;;;;;4859842;29;20720;-65
2023/07/03 12:42:49;;;;;;;13.80;12.38;;;27.20;76.60;;;;;;4860099;29;20610;-65
2023/07/03 12:45:19;;;;;;;11.07;9.60;;;27.60;74.90;;;;;;4859398;29;20213;-65
2023/07/03 12:47:46;;;;;;;9.15;8.25;;;28.00;72.80;;;;;;4859459;29;20205;-65
2023/07/03 12:50:15;;;;;;;9.05;7.88;;;28.10;73.00;;;;;;4859881;29;20196;-65
2023/07/03 12:52:40;;;;;;;13.05;8.23;;;28.10;73.10;;;;;;4859565;29;20189;-65
2023/07/03 12:55:07;;;;;;;11.73;7.38;;;28.30;72.70;;;;;;4859622;29;20215;-65
2023/07/03 12:57:37;;;;;;;14.60;8.38;;;28.70;71.90;;;;;;4859287;29;20193;-65
2023/07/03 13:00:06;;;;;;;9.35;6.38;;;28.90;71.80;;;;;;4843704;29;20749;-65
2023/07/03 13:02:34;;;;;;;14.07;6.07;;;29.00;71.30;;;;;;4859702;29;20197;-65
2023/07/03 13:05:07;;;;;;;8.15;6.15;;;29.70;70.90;;;;;;4843190;29;20709;-66
2023/07/03 13:07:33;;;;;;;9.98;8.85;;;30.30;68.30;;;;;;4858782;29;20272;-66
2023/07/03 13:10:08;;;;;;;9.68;8.85;;;30.80;65.70;;;;;;4859209;29;20208;-66
2023/07/03 13:12:34;;;;;;;9.23;7.10;;;31.00;65.50;;;;;;4859026;29;20195;-66
2023/07/03 13:15:09;;;;;;;7.10;6.28;;;31.00;63.60;;;;;;4858979;29;20244;-66
2023/07/03 13:17:43;;;;;;;7.82;5.57;;;30.80;64.10;;;;;;4858795;29;20237;-65
2023/07/03 13:20:19;;;;;;;11.50;7.72;;;31.20;62.30;;;;;;4859164;29;20193;-66
2023/07/03 13:22:48;;;;;;;18.55;17.40;;;31.60;61.60;;;;;;4858956;29;20199;-66
2023/07/03 13:25:29;;;;;;;8.82;7.90;;;31.50;60.70;;;;;;4858957;29;20232;-66
2023/07/03 13:27:56;;;;;;;11.73;10.63;;;29.60;64.00;;;;;;4858557;29;20575;-66
2023/07/03 13:30:26;;;;;;;14.82;13.45;;;29.20;64.50;;;;;;4858623;29;20189;-73
2023/07/03 13:32:55;;;;;;;7.13;6.43;;;28.40;66.30;;;;;;4858830;29;20678;-73
2023/07/03 13:35:30;;;;;;;8.38;6.28;;;28.10;67.50;;;;;;4858940;29;20217;-73
2023/07/03 13:38:30;;;;;;;9.32;5.65;;;28.50;65.90;;;;;;4841766;29;20674;-73
2023/07/03 13:40:59;;;;;;;12.65;11.55;;;29.40;64.50;;;;;;4822592;29;20204;-73
2023/07/03 13:43:28;;;;;;;10.27;6.80;;;30.10;61.50;;;;;;4858742;29;20271;-73
2023/07/03 13:45:55;;;;;;;6.60;6.07;;;30.90;61.40;;;;;;4858681;29;20302;-73
2023/07/03 13:48:22;;;;;;;17.42;16.17;;;32.30;58.50;;;;;;4858200;29;20221;-73
2023/07/03 13:50:53;;;;;;;9.52;8.82;;;31.00;57.20;;;;;;4858764;29;20218;-73
2023/07/03 13:53:20;;;;;;;13.80;12.60;;;29.00;60.00;;;;;;4858166;29;20279;-73
2023/07/03 13:55:47;;;;;;;7.85;7.15;;;27.80;63.00;;;;;;4858422;29;20213;-73
2023/07/03 13:58:13;;;;;;;4.00;3.65;;;27.20;65.40;;;;;;4841759;29;20200;-73
2023/07/03 14:00:39;;;;;;;6.65;6.00;;;26.60;67.40;;;;;;4858641;29;20292;-73
2023/07/03 14:03:04;;;;;;;11.63;8.27;;;26.40;67.70;;;;;;4858735;29;20209;-73
2023/07/03 14:05:30;;;;;;;10.75;9.38;;;26.30;67.80;;;;;;4858747;29;20227;-73
2023/07/03 14:07:57;;;;;;;8.70;8.02;;;26.30;68.70;;;;;;4857576;29;20193;-73
2023/07/03 14:10:23;;;;;;;9.27;8.57;;;26.40;68.90;;;;;;4858364;29;20197;-73
2023/07/03 14:12:49;;;;;;;11.10;10.40;;;26.40;68.50;;;;;;4858298;29;20193;-73
2023/07/03 14:15:16;;;;;;;9.73;9.05;;;26.30;69.00;;;;;;4857857;29;20252;-73
2023/07/03 14:17:42;;;;;;;10.45;9.85;;;26.30;69.30;;;;;;4857931;29;20197;-73
2023/07/03 14:20:12;;;;;;;10.13;9.18;;;26.30;69.10;;;;;;4858288;29;20193;-73
2023/07/03 14:22:39;;;;;;;9.80;9.10;;;26.40;68.80;;;;;;4858506;29;20197;-73
2023/07/03 14:25:08;;;;;;;8.45;7.90;;;26.30;69.10;;;;;;4861938;29;20224;-73
2023/07/03 14:27:35;;;;;;;12.48;11.68;;;25.90;69.50;;;;;;4845701;29;20193;-73
2023/07/03 14:30:01;;;;;;;15.30;14.23;;;25.80;70.50;;;;;;4847143;29;20214;-73
2023/07/03 14:32:27;;;;;;;12.43;11.52;;;25.60;71.60;;;;;;4856952;29;20313;-73
2023/07/03 14:34:53;;;;;;;12.05;11.25;;;25.90;71.60;;;;;;4845104;29;20204;-73
2023/07/03 14:37:19;;;;;;;13.30;12.45;;;26.20;70.60;;;;;;4860975;29;20204;-73
2023/07/03 14:39:44;;;;;;;15.25;14.05;;;26.40;70.00;;;;;;4845026;29;20212;-73
2023/07/03 14:42:10;;;;;;;15.45;14.52;;;26.30;70.30;;;;;;4861921;29;20575;-74
2023/07/03 14:44:36;;;;;;;16.38;15.38;;;26.10;71.90;;;;;;4861755;29;20193;-74
2023/07/03 14:47:02;;;;;;;20.92;19.45;;;26.00;71.90;;;;;;4861782;29;20874;-73
2023/07/03 14:49:28;;;;;;;22.23;20.23;;;25.80;72.30;;;;;;4861520;29;20689;-74
2023/07/03 14:51:53;;;;;;;15.20;14.20;;;25.80;72.30;;;;;;4861094;29;20233;-73
2023/07/03 14:54:24;;;;;;;15.25;14.27;;;25.90;72.30;;;;;;4861418;29;20249;-73
2023/07/03 14:56:49;;;;;;;14.55;13.57;;;26.30;72.00;;;;;;4861654;29;20192;-73
2023/07/03 14:59:15;;;;;;;13.77;12.80;;;26.60;71.50;;;;;;4861219;29;20654;-73
2023/07/03 15:01:41;;;;;;;8.35;7.30;;;27.10;71.10;;;;;;4861441;29;20200;-73
2023/07/03 15:04:09;;;;;;;4.85;4.25;;;29.00;66.10;;;;;;4861343;29;20684;-73
2023/07/03 15:06:39;;;;;;;11.55;10.85;;;31.00;62.00;;;;;;4860819;29;20232;-73
2023/07/03 15:09:06;;;;;;;5.53;5.03;;;31.60;59.50;;;;;;4860033;29;20224;-71
2023/07/03 15:11:31;;;;;;;4.72;4.30;;;31.20;59.00;;;;;;4860767;29;20292;-71
2023/07/03 15:13:57;;;;;;;6.35;5.55;;;30.70;59.00;;;;;;4861419;29;20276;-71
2023/07/03 15:16:31;;;;;;;18.60;17.60;;;29.80;60.80;;;;;;4873840;23;20240;-69
2023/07/03 15:19:05;;;;;;;10.90;10.25;;;29.10;63.40;;;;;;4860429;29;20248;-68
2023/07/03 15:21:31;;;;;;;4.38;3.97;;;28.40;63.10;;;;;;4847553;29;20208;-69
2023/07/03 15:23:58;;;;;;;4.65;4.25;;;27.80;66.90;;;;;;4861515;29;20197;-69
2023/07/03 15:26:24;;;;;;;7.22;6.53;;;27.50;67.40;;;;;;4858682;29;20569;-69
2023/07/03 15:28:49;;;;;;;8.95;8.25;;;27.10;69.00;;;;;;4842212;29;20725;-69
2023/07/03 15:31:15;;;;;;;10.50;9.90;;;26.80;69.00;;;;;;4842642;29;20281;-69
2023/07/03 15:33:42;;;;;;;9.57;8.75;;;26.70;69.50;;;;;;4849841;29;20331;-69
2023/07/03 15:36:08;;;;;;;8.15;7.65;;;26.60;70.20;;;;;;4825941;29;20214;-69
2023/07/03 15:38:34;;;;;;;11.82;11.23;;;26.50;70.90;;;;;;4842147;29;20309;-68
2023/07/03 15:41:00;;;;;;;12.52;11.68;;;26.40;71.00;;;;;;4826081;29;20304;-69
2023/07/03 15:43:26;;;;;;;11.23;10.48;;;26.70;71.50;;;;;;4842616;29;20207;-69
2023/07/03 15:46:07;;;;;;;10.75;10.15;;;27.10;70.70;;;;;;4841586;29;20215;-70